KCHS/CHS METAR and TAF weather

Enter ICAO airport designator
Station Type Date Time Source
KCHS METAR 2020/01/24 14:56 UTC NOAA

KCHS 241456Z 11006KT 10SM -RA BKN040 BKN085 OVC120 13/12 A3011 RMK AO2 RAB41 SLP195 P0000 60000 T01330122 53001


Station Type Date Time Source
KCHS Decoded METAR 2020/01/24 14:56 UTC NOAA

CHARLESTON INT'L AIRPORT, SC, United States (KCHS) 32-54N 080-02W 13M
Jan 24, 2020 - 09:56 AM EST / 2020.01.24 1456 UTC
Wind: from the ESE (110 degrees) at 7 MPH (6 KT):0
Visibility: 10 mile(s):0
Sky conditions: overcast
Weather: light rain
Precipitation last hour: A trace
Temperature: 55.9 F (13.3 C)
Dew Point: 54.0 F (12.2 C)
Relative Humidity: 93%
Pressure (altimeter): 30.11 in. Hg (1019 hPa)
Pressure tendency: 0.00 inches (0.1 hPa) higher than three hours ago
ob: KCHS 241456Z 11006KT 10SM -RA BKN040 BKN085 OVC120 13/12 A3011 RMK AO2 RAB41 SLP195 P0000 60000 T01330122 53001
cycle: 15

Station Type Date Time Source
KCHS TAF 2020/01/24 15:31 UTC NOAA

TAF
AMD KCHS 241523Z 2415/2512 12006KT P6SM -RA BKN040
FM241700 14008KT P6SM OVC080
FM250200 16011G18KT 4SM -TSRA BR SCT015 BKN040CB
FM250500 25008KT P6SM BKN050
FM250800 30010KT P6SM FEW080

Example: see airport list